< < Back
Terminal Aerodrome Forecast


Current Version              Previous Versions:   1  2  3  4  5  6  7  8  9  

Terminal Aerodrome Forecast

970
FTUS44 KMOB 171100
TAFPNS
TAF
KPNS 171136Z 1712/1812 07008KT P6SM BKN021 OVC040
     FM171600 10013G20KT P6SM BKN030 BKN200
     FM180600 06011KT 4SM -SHRA OVC010=



Latest METAR

926
SAUS70 KWBC 171200 RRB
MTRPNS
METAR KPNS 171153Z 07010G16KT 10SM SCT026 OVC042 13/09 A3020 RMK AO2
SLP229 T01330089 10139 20128 53012


USA.gov is the U.S. government's official web portal to all federal, state and local government web resources and services.